Abel, Alabama
Current Conditions -  °F | °C
As of 10:53 AM on Tuesday 27 Jan 2015 (Local Time) from KANB Reporting Station
Clear Clear  
Wind Chill: 11°   Ceiling: Unl
Heat Index: 11°   Visibility: 10mi
Dew Point: -1°   Wind: 10mph
Humidity: 46%   Direction: 310°NW
Pressure: 30.01"   Gusts: 20mph
Location:  33.4483°N, 85.6826°W
Report Text: KANB 271653Z AUTO 31009G17KT 10SM CLR 11/M01 A3001 RMK AO2 SLP168 T01061006
Loading
Personal Weather Stations






























Interactive Weather Map New forecast layout! Learn more

10-Day Weather Forecast

Advertisements
Track Severe Weather on mobile